Time;durP1;ratioP1;P1;durP2;ratioP2;P2;SDS_P1;SDS_P2;PMS_P1;PMS_P2;Temp;Humidity;BMP_temperature;BMP_pressure;BME280_temperature;BME280_humidity;BME280_pressure;Samples;Min_cycle;Max_cycle;Signal;HPM_P1;HPM_P2
2022/07/22 00:00:11;;;;;;;4.53;3.00;;;;;;;17.51;82.40;99046.31;5104740;28;20044;-46
2022/07/22 00:02:37;;;;;;;3.92;3.25;;;;;;;17.62;82.72;99066.59;5091826;28;20594;-49
2022/07/22 00:05:03;;;;;;;4.40;3.35;;;;;;;17.57;82.76;99069.53;5091524;28;20093;-43
2022/07/22 00:07:29;;;;;;;2.90;2.60;;;;;;;17.53;82.80;99057.56;5108475;28;20084;-49
2022/07/22 00:09:55;;;;;;;4.18;2.50;;;;;;;17.49;82.52;99063.97;5099368;28;20044;-45
2022/07/22 00:12:21;;;;;;;3.40;2.80;;;;;;;17.38;83.07;99060.47;5092082;28;20044;-48
2022/07/22 00:14:47;;;;;;;8.27;3.42;;;;;;;17.30;83.74;99069.72;5091575;28;20040;-47
2022/07/22 00:17:12;;;;;;;3.15;2.45;;;;;;;17.23;83.95;99068.47;5107078;28;20422;-48
2022/07/22 00:19:38;;;;;;;5.18;3.35;;;;;;;17.12;84.37;99062.28;5093301;28;20036;-50
2022/07/22 00:22:04;;;;;;;4.68;2.75;;;;;;;17.07;84.47;99067.03;5091598;28;20047;-47
2022/07/22 00:24:30;;;;;;;5.32;2.70;;;;;;;17.10;84.72;99072.09;5090225;28;20113;-47
2022/07/22 00:26:56;;;;;;;4.32;2.45;;;;;;;17.02;85.10;99074.38;5091922;28;20130;-48
2022/07/22 00:29:21;;;;;;;2.80;2.45;;;;;;;16.69;85.43;99023.31;5091371;28;20168;-49
2022/07/22 00:31:47;;;;;;;3.95;3.50;;;;;;;16.95;85.71;99068.75;5090903;28;21718;-46
2022/07/22 00:34:13;;;;;;;3.20;2.90;;;;;;;16.92;86.18;99077.69;5090183;28;20040;-48
2022/07/22 00:36:39;;;;;;;3.13;2.83;;;;;;;16.88;86.40;99078.00;5091476;28;20404;-48
2022/07/22 00:39:05;;;;;;;5.88;2.83;;;;;;;16.72;86.95;99054.59;5090086;28;20036;-47
2022/07/22 00:41:30;;;;;;;3.35;2.53;;;;;;;16.70;87.13;99058.25;5105608;28;20503;-48
2022/07/22 00:44:14;;;;;;;2.90;2.53;;;;;;;16.82;87.55;99081.88;5104614;28;20032;-51
2022/07/22 00:46:41;;;;;;;4.53;2.60;;;;;;;16.80;87.78;99075.09;5091496;28;20130;-48
2022/07/22 00:49:08;;;;;;;4.35;2.95;;;;;;;16.78;87.88;99071.72;5093157;28;20043;-46
2022/07/22 00:51:36;;;;;;;3.85;2.40;;;;;;;16.71;88.18;99073.06;5099583;28;20114;-50
2022/07/22 00:54:03;;;;;;;3.13;2.50;;;;;;;16.74;88.41;99076.34;5104192;28;20455;-50
2022/07/22 00:56:29;;;;;;;4.47;2.45;;;;;;;16.72;88.54;99075.59;5106164;28;20139;-49
2022/07/22 00:58:58;;;;;;;7.07;2.45;;;;;;;16.66;88.90;99070.75;5081703;28;20044;-48
2022/07/22 01:01:25;;;;;;;4.47;2.60;;;;;;;16.68;89.24;99073.28;5089501;28;20097;-44
2022/07/22 01:03:52;;;;;;;7.72;3.08;;;;;;;16.63;89.86;99078.03;5101368;28;20422;-47
2022/07/22 01:06:17;;;;;;;8.13;3.10;;;;;;;16.61;90.17;99080.75;5092597;28;20035;-49
2022/07/22 01:08:43;;;;;;;6.65;3.50;;;;;;;16.60;90.45;99086.09;5064770;28;20096;-50
2022/07/22 01:11:11;;;;;;;5.15;3.70;;;;;;;16.56;90.59;99085.44;5101806;28;20552;-45
2022/07/22 01:13:37;;;;;;;6.40;3.30;;;;;;;16.54;91.13;99082.91;5089121;28;20094;-48
2022/07/22 01:16:05;;;;;;;6.00;3.40;;;;;;;16.53;91.11;99086.50;5090390;28;20036;-45
2022/07/22 01:18:31;;;;;;;4.43;3.10;;;;;;;16.53;91.35;99083.03;5090122;28;20040;-46
2022/07/22 01:20:57;;;;;;;4.55;2.72;;;;;;;16.53;91.75;99080.41;5090355;28;20085;-47
2022/07/22 01:23:23;;;;;;;5.00;2.60;;;;;;;16.54;91.45;99084.69;5088814;28;20464;-49
2022/07/22 01:25:49;;;;;;;3.42;2.53;;;;;;;16.53;91.51;99083.88;5088936;28;20039;-44
2022/07/22 01:28:15;;;;;;;4.85;2.50;;;;;;;16.56;91.64;99080.19;5089035;28;20108;-48
2022/07/22 01:30:41;;;;;;;3.65;3.00;;;;;;;16.60;91.70;99086.09;5097566;28;20034;-44
2022/07/22 01:33:07;;;;;;;4.38;2.40;;;;;;;16.61;91.46;99095.63;5095950;28;20039;-44
2022/07/22 01:35:33;;;;;;;4.20;2.95;;;;;;;16.57;91.51;99084.50;5088826;28;20055;-47
2022/07/22 01:37:59;;;;;;;8.30;3.13;;;;;;;16.60;91.45;99088.72;5088632;28;20074;-45
2022/07/22 01:40:25;;;;;;;6.10;3.22;;;;;;;16.53;91.64;99085.66;5071426;28;20071;-46
2022/07/22 01:42:51;;;;;;;5.95;3.25;;;;;;;16.57;91.84;99094.16;5089405;28;20093;-46
2022/07/22 01:45:17;;;;;;;5.35;2.65;;;;;;;16.43;91.98;99077.53;5088635;28;20048;-44
2022/07/22 01:47:43;;;;;;;3.83;2.72;;;;;;;16.58;92.32;99101.94;5089348;28;20046;-44
2022/07/22 01:50:11;;;;;;;13.65;3.53;;;;;;;16.57;92.09;99104.66;5088617;28;20043;-45
2022/07/22 01:52:38;;;;;;;7.10;3.08;;;;;;;16.57;92.33;99108.13;5087959;28;20086;-45
2022/07/22 01:55:06;;;;;;;5.57;3.00;;;;;;;16.48;92.10;99096.47;5089790;28;20086;-47
2022/07/22 01:57:32;;;;;;;8.60;3.50;;;;;;;16.35;92.42;99071.16;5086450;28;20598;-45
2022/07/22 01:59:59;;;;;;;5.43;3.25;;;;;;;16.56;92.26;99108.22;5072668;28;20127;-45
2022/07/22 02:02:25;;;;;;;9.05;3.47;;;;;;;16.36;92.44;99068.44;5083721;28;20812;-46
2022/07/22 02:04:53;;;;;;;5.20;3.30;;;;;;;16.57;92.48;99112.53;5088381;28;20431;-45
2022/07/22 02:07:18;;;;;;;4.80;3.22;;;;;;;16.59;92.71;99115.94;5088936;28;20117;-46
2022/07/22 02:09:44;;;;;;;9.43;3.53;;;;;;;16.47;92.32;99093.94;5088234;28;20519;-45
2022/07/22 02:12:13;;;;;;;7.65;3.45;;;;;;;16.60;92.36;99109.69;5107832;28;20043;-44
2022/07/22 02:14:44;;;;;;;6.47;3.05;;;;;;;16.45;92.16;99086.16;5108709;28;20045;-46
2022/07/22 02:17:10;;;;;;;5.03;3.10;;;;;;;16.61;92.00;99120.09;5082794;28;20044;-47
2022/07/22 02:19:38;;;;;;;6.88;3.30;;;;;;;16.60;91.86;99120.19;5071455;28;20158;-44
2022/07/22 02:22:04;;;;;;;6.45;3.55;;;;;;;16.61;92.12;99127.97;5097478;28;20048;-44
2022/07/22 02:24:30;;;;;;;7.35;3.58;;;;;;;16.60;92.22;99120.19;5088457;28;20051;-46
2022/07/22 02:26:56;;;;;;;8.02;3.78;;;;;;;16.61;92.19;99125.34;5098968;28;20104;-45
2022/07/22 02:29:21;;;;;;;6.65;3.50;;;;;;;16.63;91.98;99133.13;5087969;28;20045;-45
2022/07/22 02:31:47;;;;;;;9.65;4.50;;;;;;;16.63;92.18;99130.50;5089227;28;20118;-49
2022/07/22 02:34:13;;;;;;;8.50;3.72;;;;;;;16.49;92.03;99102.53;5071316;28;20024;-45
2022/07/22 02:36:39;;;;;;;6.35;3.78;;;;;;;16.51;91.79;99112.00;5087760;28;20044;-45
2022/07/22 02:39:05;;;;;;;5.30;3.33;;;;;;;16.70;91.89;99142.25;5089467;28;20537;-44
2022/07/22 02:41:31;;;;;;;5.53;3.13;;;;;;;16.71;92.02;99138.69;5071443;28;20055;-45
2022/07/22 02:43:57;;;;;;;8.75;3.30;;;;;;;16.75;91.48;99135.75;5087797;28;20044;-46
2022/07/22 02:46:24;;;;;;;7.28;3.20;;;;;;;16.83;91.33;99146.59;5088939;28;20042;-45
2022/07/22 02:48:50;;;;;;;6.20;3.60;;;;;;;16.89;91.24;99148.78;5088527;28;20047;-47
2022/07/22 02:51:18;;;;;;;12.70;3.78;;;;;;;16.93;90.92;99147.63;5090027;28;20523;-46
2022/07/22 02:53:44;;;;;;;12.38;3.67;;;;;;;16.94;90.54;99151.09;5071198;28;20092;-46
2022/07/22 02:56:10;;;;;;;7.63;3.50;;;;;;;16.96;90.44;99158.88;5087924;28;20469;-44
2022/07/22 02:58:36;;;;;;;9.75;3.38;;;;;;;16.88;89.94;99144.47;5086405;28;20063;-43
2022/07/22 03:01:06;;;;;;;8.23;3.65;;;;;;;16.97;89.76;99164.00;5067525;28;20040;-45
2022/07/22 03:03:42;;;;;;;6.40;3.20;;;;;;;16.99;89.81;99154.25;5085820;28;20044;-45
2022/07/22 03:06:08;;;;;;;10.98;2.97;;;;;;;17.01;89.69;99159.41;5070656;28;20040;-45
2022/07/22 03:08:43;;;;;;;9.38;2.80;;;;;;;17.01;89.69;99156.78;5088978;28;20056;-44
2022/07/22 03:11:11;;;;;;;9.30;2.90;;;;;;;17.03;89.59;99154.88;5091604;28;20128;-49
2022/07/22 03:13:38;;;;;;;7.53;2.72;;;;;;;17.04;89.47;99154.78;5091547;28;20047;-46
2022/07/22 03:16:05;;;;;;;12.27;3.55;;;;;;;16.99;89.18;99146.38;5091140;28;20048;-45
2022/07/22 03:18:31;;;;;;;5.70;2.75;;;;;;;16.96;89.31;99135.25;5091270;28;20107;-48
2022/07/22 03:20:57;;;;;;;7.45;3.17;;;;;;;17.14;89.05;99166.31;5091602;28;20836;-48
2022/07/22 03:23:23;;;;;;;8.57;3.00;;;;;;;17.17;89.00;99166.09;5074595;28;20508;-45
2022/07/22 03:25:50;;;;;;;4.28;2.47;;;;;;;17.21;89.31;99172.84;5076085;28;20075;-45
2022/07/22 03:28:19;;;;;;;10.18;3.03;;;;;;;17.26;88.93;99175.16;5111995;28;20071;-46
2022/07/22 03:30:45;;;;;;;4.82;2.67;;;;;;;17.28;88.56;99170.59;5095142;28;20126;-44
2022/07/22 03:33:13;;;;;;;7.07;4.78;;;;;;;17.32;88.57;99172.09;5090600;28;20068;-44
2022/07/22 03:35:42;;;;;;;4.53;3.97;;;;;;;17.36;88.35;99178.81;5091258;28;20067;-44
2022/07/22 03:38:08;;;;;;;2.67;2.28;;;;;;;17.40;88.07;99185.50;5074277;28;20074;-45
2022/07/22 03:40:36;;;;;;;4.95;2.50;;;;;;;17.43;87.79;99190.53;5092038;28;20131;-46
2022/07/22 03:43:03;;;;;;;6.07;2.60;;;;;;;17.32;87.65;99164.22;5074688;28;20093;-45
2022/07/22 03:45:31;;;;;;;5.20;3.53;;;;;;;17.53;87.51;99196.03;5090988;28;20100;-46
2022/07/22 03:47:58;;;;;;;3.47;2.33;;;;;;;17.57;87.33;99189.59;5073829;28;20044;-45
2022/07/22 03:50:27;;;;;;;3.08;2.58;;;;;;;17.58;86.88;99186.88;5074030;28;20479;-46
2022/07/22 03:52:54;;;;;;;2.97;2.35;;;;;;;17.67;86.57;99199.38;5090907;28;20048;-49
2022/07/22 03:55:20;;;;;;;3.25;2.65;;;;;;;17.73;86.38;99204.22;5090527;28;20566;-46
2022/07/22 03:57:50;;;;;;;4.65;3.47;;;;;;;17.79;85.85;99200.31;5071451;28;20048;-45
2022/07/22 04:00:24;;;;;;;2.53;2.30;;;;;;;17.85;85.87;99210.34;5074784;28;20036;-46
2022/07/22 04:02:50;;;;;;;3.42;2.03;;;;;;;17.89;85.58;99209.22;5093972;28;20040;-47
2022/07/22 04:05:21;;;;;;;3.95;2.50;;;;;;;17.93;85.42;99207.19;5090377;28;20047;-45
2022/07/22 04:07:49;;;;;;;4.07;2.20;;;;;;;17.95;85.30;99214.00;5090388;28;20040;-46
2022/07/22 04:10:16;;;;;;;2.58;2.38;;;;;;;17.98;85.13;99200.66;5089390;28;20147;-46
2022/07/22 04:12:43;;;;;;;2.70;2.13;;;;;;;17.84;84.98;99179.78;5091612;28;20092;-46
2022/07/22 04:15:15;;;;;;;2.45;2.08;;;;;;;18.09;84.56;99202.50;5095986;28;20415;-47
2022/07/22 04:17:41;;;;;;;4.68;2.78;;;;;;;18.14;84.11;99203.84;5090010;28;20518;-45
2022/07/22 04:20:08;;;;;;;5.53;2.15;;;;;;;17.93;83.53;99165.94;5089446;28;20507;-48
2022/07/22 04:22:54;;;;;;;11.27;2.55;;;;;;;18.29;83.19;99212.41;5107327;28;20044;-46
2022/07/22 04:25:20;;;;;;;5.70;2.13;;;;;;;18.36;82.88;99218.06;5096200;28;20047;-49
2022/07/22 04:27:47;;;;;;;6.70;2.33;;;;;;;18.41;82.46;99216.78;5111940;28;20426;-47
2022/07/22 04:30:16;;;;;;;4.05;2.25;;;;;;;18.48;82.27;99222.41;5077919;28;20039;-46
2022/07/22 04:32:46;;;;;;;2.42;2.13;;;;;;;18.51;82.07;99230.94;5091598;28;20576;-47
2022/07/22 04:35:11;;;;;;;3.50;1.83;;;;;;;18.56;81.74;99230.63;5089551;28;20131;-44
2022/07/22 04:37:42;;;;;;;3.50;2.00;;;;;;;18.55;81.43;99215.78;5089703;28;20134;-45
2022/07/22 04:40:08;;;;;;;3.58;2.20;;;;;;;18.68;80.95;99234.16;5109250;28;20134;-45
2022/07/22 04:42:34;;;;;;;2.85;2.13;;;;;;;18.74;80.53;99233.66;5110320;28;20115;-47
2022/07/22 04:45:00;;;;;;;2.78;1.95;;;;;;;18.79;80.20;99232.38;5100718;28;20048;-44
2022/07/22 04:47:26;;;;;;;4.88;2.50;;;;;;;18.87;79.82;99231.81;5072465;28;20075;-46
2022/07/22 04:49:53;;;;;;;4.05;2.28;;;;;;;18.90;79.44;99236.81;5089866;28;20085;-46
2022/07/22 04:52:19;;;;;;;5.22;2.90;;;;;;;18.95;79.25;99234.69;5089435;28;20081;-43
2022/07/22 04:54:47;;;;;;;4.07;2.45;;;;;;;19.00;79.12;99238.66;5092780;28;20043;-47
2022/07/22 04:57:13;;;;;;;2.20;1.83;;;;;;;19.03;78.74;99229.69;5103450;28;20040;-48
2022/07/22 04:59:39;;;;;;;7.93;2.50;;;;;;;19.06;78.12;99232.06;5102811;27;20044;-44
2022/07/22 05:02:05;;;;;;;6.00;2.17;;;;;;;19.17;77.83;99247.06;5106090;28;20465;-49
2022/07/22 05:04:31;;;;;;;3.63;2.05;;;;;;;19.26;77.63;99254.28;5090341;28;20075;-45
2022/07/22 05:06:58;;;;;;;5.47;1.95;;;;;;;19.30;77.41;99259.22;5072078;28;20040;-46
2022/07/22 05:09:24;;;;;;;3.80;2.13;;;;;;;19.34;77.17;99255.38;5096598;28;20103;-44
2022/07/22 05:11:50;;;;;;;5.47;1.70;;;;;;;19.12;76.69;99213.16;5109738;28;20044;-44
2022/07/22 05:14:20;;;;;;;3.77;1.90;;;;;;;19.43;76.32;99256.44;5109532;28;20465;-45
2022/07/22 05:16:45;;;;;;;5.65;2.47;;;;;;;19.48;75.87;99262.22;5108607;28;20085;-49
2022/07/22 05:19:11;;;;;;;4.25;2.45;;;;;;;19.43;75.65;99236.19;5089515;28;20040;-43
2022/07/22 05:21:38;;;;;;;11.80;4.93;;;;;;;19.62;75.43;99259.38;5089055;28;20036;-45
2022/07/22 05:24:05;;;;;;;8.57;3.28;;;;;;;19.59;75.12;99232.38;5093727;28;20538;-45
2022/07/22 05:26:33;;;;;;;4.60;2.60;;;;;;;19.77;75.16;99265.25;5093750;28;20036;-46
2022/07/22 05:28:59;;;;;;;5.82;2.50;;;;;;;19.83;74.73;99264.78;5089325;28;20063;-48
2022/07/22 05:31:27;;;;;;;4.85;2.08;;;;;;;19.89;74.36;99261.63;5088039;28;20035;-45
2022/07/22 05:33:54;;;;;;;9.88;2.33;;;;;;;19.87;73.47;99237.19;5089029;28;20046;-45
2022/07/22 05:36:31;;;;;;;4.30;2.30;;;;;;;20.15;73.23;99265.66;5073542;28;20046;-45
2022/07/22 05:38:57;;;;;;;6.10;2.15;;;;;;;20.26;73.03;99268.28;5088634;28;20044;-44
2022/07/22 05:41:24;;;;;;;6.93;2.17;;;;;;;20.36;72.72;99267.59;5088582;28;20184;-47
2022/07/22 05:43:51;;;;;;;6.82;2.50;;;;;;;20.45;72.05;99266.84;5088422;28;20101;-44
2022/07/22 05:46:18;;;;;;;6.53;2.03;;;;;;;20.54;71.57;99261.63;5055047;28;20416;-43
2022/07/22 05:48:44;;;;;;;7.25;2.20;;;;;;;20.64;70.80;99259.06;5090202;28;20051;-43
2022/07/22 05:51:12;;;;;;;3.80;2.30;;;;;;;20.71;70.35;99253.16;5109246;28;20097;-44
2022/07/22 05:53:39;;;;;;;3.33;2.08;;;;;;;20.88;69.81;99266.78;5092834;28;20070;-44
2022/07/22 05:56:06;;;;;;;3.63;1.90;;;;;;;21.01;68.93;99267.41;5058330;28;20044;-45
2022/07/22 05:58:32;;;;;;;6.65;2.20;;;;;;;21.12;68.74;99262.91;5088755;28;20066;-47
2022/07/22 06:00:58;;;;;;;6.20;2.00;;;;;;;21.22;68.55;99257.72;5111268;27;20127;-44
2022/07/22 06:03:24;;;;;;;3.70;1.90;;;;;;;21.34;68.27;99261.13;5090137;28;20039;-43
2022/07/22 06:05:50;;;;;;;4.80;1.90;;;;;;;21.39;67.65;99262.41;5080625;28;20086;-45
2022/07/22 06:08:16;;;;;;;2.00;1.70;;;;;;;21.43;66.97;99258.53;5091206;28;20044;-51
2022/07/22 06:10:50;;;;;;;3.50;1.80;;;;;;;21.56;66.62;99258.31;5071791;28;20060;-44
2022/07/22 06:13:17;;;;;;;1.95;1.70;;;;;;;21.70;65.90;99262.41;5087907;28;20052;-44
2022/07/22 06:15:43;;;;;;;3.63;1.75;;;;;;;21.82;65.46;99264.84;5088243;28;20051;-44
2022/07/22 06:18:11;;;;;;;2.80;1.80;;;;;;;21.93;65.08;99258.56;5089210;28;20523;-47
2022/07/22 06:20:37;;;;;;;6.20;1.48;;;;;;;22.05;64.26;99264.63;5071439;28;20130;-45
2022/07/22 06:23:03;;;;;;;4.00;1.80;;;;;;;22.18;63.58;99274.03;5089352;28;20479;-43
2022/07/22 06:25:30;;;;;;;3.80;1.75;;;;;;;22.31;63.04;99265.81;5088215;28;20534;-46
2022/07/22 06:27:56;;;;;;;1.58;1.45;;;;;;;22.32;62.25;99239.19;5088104;28;20047;-55
2022/07/22 06:30:22;;;;;;;2.65;1.50;;;;;;;22.80;61.48;99267.56;5087041;28;20036;-58
2022/07/22 06:32:48;;;;;;;5.60;2.15;;;;;;;23.13;60.52;99274.25;5086242;28;20036;-57
2022/07/22 06:35:13;;;;;;;1.80;1.70;;;;;;;23.52;59.73;99269.69;5091244;28;20036;-58
2022/07/22 06:37:39;;;;;;;2.60;1.38;;;;;;;23.75;58.01;99240.97;5071648;28;20610;-59
2022/07/22 06:40:06;;;;;;;2.17;1.30;;;;;;;24.29;56.60;99234.81;5087498;28;20093;-58
2022/07/22 06:42:45;;;;;;;2.35;1.65;;;;;;;25.16;54.11;99270.34;5089325;28;20048;-56
2022/07/22 06:45:30;;;;;;;2.65;1.70;;;;;;;26.17;52.13;99277.56;5100446;28;20051;-56
2022/07/22 06:48:06;;;;;;;2.50;1.80;;;;;;;27.16;49.79;99282.94;5073788;28;20046;-53
2022/07/22 06:50:32;;;;;;;1.73;1.38;;;;;;;28.07;47.87;99279.88;5071024;28;20523;-59
2022/07/22 06:53:03;;;;;;;1.75;1.55;;;;;;;28.84;45.89;99289.66;5104160;28;20047;-57
2022/07/22 06:55:29;;;;;;;2.33;1.50;;;;;;;29.73;43.21;99278.13;5107455;27;20046;-58
2022/07/22 06:58:09;;;;;;;3.47;1.98;;;;;;;30.60;41.57;99265.66;5090232;28;20063;-59
2022/07/22 07:00:35;;;;;;;1.92;1.38;;;;;;;31.55;39.49;99286.72;5074500;28;20447;-59
2022/07/22 07:03:20;;;;;;;2.53;1.48;;;;;;;32.35;37.84;99289.66;5092309;28;20065;-58
2022/07/22 07:05:46;;;;;;;3.08;1.45;;;;;;;33.23;36.16;99289.66;5096627;28;20127;-58
2022/07/22 07:08:12;;;;;;;5.30;3.08;;;;;;;33.99;34.82;99275.41;5091704;28;20200;-57
2022/07/22 07:10:38;;;;;;;1.48;1.10;;;;;;;34.73;33.35;99282.16;5105892;28;20432;-62
2022/07/22 07:13:09;;;;;;;2.55;1.63;;;;;;;34.50;32.95;99285.38;5092114;28;20044;-59
2022/07/22 07:16:00;;;;;;;3.58;1.30;;;;;;;35.48;31.13;99288.44;5091109;28;20036;-47
2022/07/22 07:18:26;;;;;;;4.22;1.50;;;;;;;36.44;29.99;99289.44;5090952;28;20550;-61
2022/07/22 07:20:52;;;;;;;3.20;1.40;;;;;;;37.30;28.62;99289.00;5091049;28;20130;-61
2022/07/22 07:23:17;;;;;;;3.85;1.80;;;;;;;38.01;27.83;99290.63;5089833;28;20126;-60
2022/07/22 07:25:45;;;;;;;3.83;1.88;;;;;;;38.45;26.85;99270.09;5094164;28;20047;-58
2022/07/22 07:28:11;;;;;;;4.75;1.73;;;;;;;38.89;25.88;99287.47;5090498;28;20048;-60
2022/07/22 07:30:51;;;;;;;2.80;1.80;;;;;;;39.54;24.55;99269.75;5074589;28;20036;-59
2022/07/22 07:33:17;;;;;;;3.22;1.75;;;;;;;40.14;23.81;99286.09;5090551;28;20521;-58
2022/07/22 07:35:43;;;;;;;2.67;1.80;;;;;;;40.42;23.04;99291.34;5075681;28;20043;-63
2022/07/22 07:38:09;;;;;;;5.28;1.85;;;;;;;40.62;22.57;99271.66;5090107;28;20059;-61
2022/07/22 07:40:37;;;;;;;1.92;1.70;;;;;;;40.84;21.63;99293.41;5066773;28;20059;-61
2022/07/22 07:43:03;;;;;;;4.38;1.90;;;;;;;40.98;21.43;99272.84;5088860;28;20036;-60
2022/07/22 07:45:37;;;;;;;4.45;1.80;;;;;;;41.42;21.35;99287.91;5089579;28;20044;-59
2022/07/22 07:48:39;;;;;;;4.47;1.60;;;;;;;41.72;21.00;99284.56;5028962;28;20041;-61
2022/07/22 07:51:05;;;;;;;4.57;1.75;;;;;;;42.11;20.73;99289.69;5076074;28;20051;-61
2022/07/22 07:53:31;;;;;;;2.28;1.50;;;;;;;42.08;20.54;99280.16;5070193;28;20570;-61
2022/07/22 07:55:57;;;;;;;3.50;1.85;;;;;;;41.77;20.44;99281.84;5122274;27;20043;-61
2022/07/22 07:58:23;;;;;;;2.92;2.10;;;;;;;41.68;20.07;99283.47;5097857;28;20062;-61
2022/07/22 08:00:49;;;;;;;3.63;1.80;;;;;;;41.79;20.42;99265.22;5073866;28;20444;-62
2022/07/22 08:03:16;;;;;;;3.72;1.88;;;;;;;42.04;20.28;99259.88;5090682;28;20150;-61
2022/07/22 08:05:42;;;;;;;5.13;2.10;;;;;;;42.33;20.27;99284.06;5090690;28;20339;-60
2022/07/22 08:08:14;;;;;;;4.95;2.30;;;;;;;42.54;19.75;99280.28;5107147;28;20554;-62
2022/07/22 08:10:40;;;;;;;2.97;2.20;;;;;;;42.72;19.53;99289.91;5093176;28;20036;-61
2022/07/22 08:13:17;;;;;;;6.63;3.10;;;;;;;42.98;18.92;99286.09;5090689;28;20113;-60
2022/07/22 08:16:02;;;;;;;3.95;2.03;;;;;;;43.40;18.72;99294.00;5109057;28;20525;-61
2022/07/22 08:18:29;;;;;;;3.90;3.20;;;;;;;43.71;18.38;99294.78;5110892;28;20043;-62
2022/07/22 08:20:55;;;;;;;7.43;5.00;;;;;;;43.92;18.22;99287.38;5110621;28;20070;-60
2022/07/22 08:23:33;;;;;;;4.22;2.85;;;;;;;43.87;17.99;99285.44;5110595;28;20136;-61
2022/07/22 08:25:59;;;;;;;6.57;3.80;;;;;;;43.86;18.03;99283.81;5105849;27;20086;-62
2022/07/22 08:28:25;;;;;;;6.43;2.58;;;;;;;43.84;18.50;99291.47;5076131;28;20347;-60
2022/07/22 08:30:52;;;;;;;2.17;1.98;;;;;;;44.25;18.16;99292.13;5089143;28;20048;-60
2022/07/22 08:33:18;;;;;;;3.25;2.90;;;;;;;44.44;17.88;99289.63;5099847;28;20071;-60
2022/07/22 08:35:45;;;;;;;5.03;3.08;;;;;;;44.59;17.86;99303.22;5110244;28;20504;-60
2022/07/22 08:38:11;;;;;;;3.78;2.53;;;;;;;43.76;18.19;99294.81;5110206;28;20051;-61
2022/07/22 08:40:37;;;;;;;4.93;2.40;;;;;;;42.32;19.32;99294.16;5102726;28;20044;-61
2022/07/22 08:43:05;;;;;;;;;;;;;;;40.67;20.30;99298.19;5105860;28;20044;-65
2022/07/22 08:45:32;;;;;;;4.30;1.92;;;;;;;40.56;20.90;99295.34;5089366;28;20389;-65
2022/07/22 08:47:59;;;;;;;6.38;2.90;;;;;;;39.92;20.85;99293.44;5089401;28;20123;-63
2022/07/22 08:50:45;;;;;;;4.15;3.00;;;;;;;39.61;21.41;99282.13;5068285;28;20048;-61
2022/07/22 08:53:37;;;;;;;16.52;3.53;;;;;;;39.18;21.90;99296.41;5079198;28;20052;-62
2022/07/22 08:56:13;;;;;;;3.92;3.00;;;;;;;39.96;21.17;99311.75;5089944;28;20044;-61
2022/07/22 08:58:40;;;;;;;3.60;2.55;;;;;;;41.74;19.78;99304.25;5089511;28;20040;-63
2022/07/22 09:01:12;;;;;;;4.60;2.42;;;;;;;41.99;19.12;99305.47;5089405;28;20036;-62
2022/07/22 09:03:55;;;;;;;3.67;1.95;;;;;;;42.56;18.87;99302.69;5069201;28;20060;-59
2022/07/22 09:06:24;;;;;;;4.63;2.25;;;;;;;42.05;19.18;99299.78;5069390;28;20515;-59
2022/07/22 09:08:58;;;;;;;4.85;2.53;;;;;;;41.86;19.67;99299.41;5094856;28;20063;-58
2022/07/22 09:11:45;;;;;;;9.15;3.17;;;;;;;43.17;18.51;99292.69;5069728;28;20087;-59
2022/07/22 09:14:50;;;;;;;6.95;2.50;;;;;;;42.20;19.52;99304.47;5056662;28;20528;-58
2022/07/22 09:17:38;;;;;;;2.60;2.10;;;;;;;40.56;20.37;99299.97;5070035;28;20038;-59
2022/07/22 09:20:32;;;;;;;4.40;2.33;;;;;;;38.78;22.26;99292.97;5095087;28;20431;-60
2022/07/22 09:23:20;;;;;;;3.95;2.88;;;;;;;39.66;21.94;99303.13;5110106;28;20044;-59
2022/07/22 09:25:47;;;;;;;5.13;2.00;;;;;;;40.96;20.55;99285.91;5096039;28;20546;-59
2022/07/22 09:28:54;;;;;;;4.38;2.30;;;;;;;42.59;18.71;99293.97;5053393;28;20056;-59
2022/07/22 09:31:42;;;;;;;6.15;3.15;;;;;;;43.72;18.17;99302.75;5069738;28;20055;-58
2022/07/22 09:34:31;;;;;;;6.30;3.45;;;;;;;41.98;19.02;99280.06;5068778;28;20040;-58
2022/07/22 09:37:02;;;;;;;4.78;2.10;;;;;;;42.36;19.05;99311.66;5061558;28;20043;-58
2022/07/22 09:39:32;;;;;;;3.97;1.70;;;;;;;41.67;19.96;99303.66;5103696;28;20109;-59
2022/07/22 09:42:03;;;;;;;4.75;2.80;;;;;;;39.48;21.36;99298.78;5082343;28;20044;-58
2022/07/22 09:44:29;;;;;;;2.50;1.55;;;;;;;37.67;22.63;99305.91;5085451;28;20037;-60
2022/07/22 09:46:59;;;;;;;4.85;3.70;;;;;;;38.13;22.68;99296.88;5077179;28;20042;-59
2022/07/22 09:49:39;;;;;;;12.50;6.43;;;;;;;39.20;22.09;99283.38;5110286;28;20426;-59
2022/07/22 09:52:24;;;;;;;6.50;3.70;;;;;;;38.08;23.01;99272.31;5110608;28;20080;-59
2022/07/22 09:55:02;;;;;;;6.10;3.35;;;;;;;38.39;23.09;99297.38;5106221;28;20055;-59
2022/07/22 09:57:29;;;;;;;13.50;7.97;;;;;;;37.80;23.88;99296.66;5088575;28;20044;-58
2022/07/22 09:59:55;;;;;;;4.43;2.70;;;;;;;39.49;22.19;99262.34;5088805;28;20519;-58
2022/07/22 10:02:29;;;;;;;12.20;3.92;;;;;;;41.44;20.37;99301.31;5088605;28;20625;-58
2022/07/22 10:04:55;;;;;;;5.90;3.45;;;;;;;42.87;19.29;99307.13;5056365;28;20135;-59
2022/07/22 10:07:23;;;;;;;4.88;3.05;;;;;;;42.65;19.31;99293.72;5108598;28;20139;-59
2022/07/22 10:09:50;;;;;;;9.63;5.88;;;;;;;43.36;18.90;99318.41;5110079;28;20525;-60
2022/07/22 10:12:16;;;;;;;4.28;3.25;;;;;;;44.12;18.36;99303.72;5089224;28;20044;-60
2022/07/22 10:14:45;;;;;;;10.50;5.00;;;;;;;44.61;17.59;99306.47;5071422;28;20059;-61
2022/07/22 10:17:13;;;;;;;3.45;3.05;;;;;;;44.96;17.46;99309.03;5108017;28;20828;-61
2022/07/22 10:19:40;;;;;;;3.45;2.60;;;;;;;44.95;16.93;99288.16;5108825;28;20039;-60
2022/07/22 10:22:51;;;;;;;3.80;3.13;;;;;;;44.44;17.40;99317.03;5108731;28;20055;-61
2022/07/22 10:25:18;;;;;;;5.22;3.50;;;;;;;44.09;17.74;99313.31;5099408;28;20197;-61
2022/07/22 10:27:46;;;;;;;2.92;2.72;;;;;;;44.39;16.96;99306.09;5087754;28;20126;-60
2022/07/22 10:30:14;;;;;;;4.30;2.83;;;;;;;45.02;16.90;99318.81;5089587;28;20093;-60
2022/07/22 10:32:40;;;;;;;5.43;3.42;;;;;;;45.27;16.56;99292.31;5089420;28;20063;-59
2022/07/22 10:35:08;;;;;;;3.28;3.03;;;;;;;45.97;16.30;99310.81;5090347;28;20112;-61
2022/07/22 10:37:34;;;;;;;3.85;2.08;;;;;;;44.53;16.75;99313.41;5109731;28;20035;-60
2022/07/22 10:40:22;;;;;;;3.60;2.10;;;;;;;42.26;18.57;99297.94;5095568;28;20516;-58
2022/07/22 10:42:59;;;;;;;6.25;2.10;;;;;;;40.41;20.83;99303.31;5069295;28;20049;-61
2022/07/22 10:45:37;;;;;;;4.57;4.18;;;;;;;41.48;20.31;99305.19;5079206;28;20035;-61
2022/07/22 10:48:07;;;;;;;5.03;3.80;;;;;;;43.33;18.46;99313.47;5101575;28;20126;-61
2022/07/22 10:50:39;;;;;;;6.82;2.60;;;;;;;44.46;17.54;99323.03;5087772;28;20427;-61
2022/07/22 10:53:10;;;;;;;5.70;3.20;;;;;;;43.28;18.20;99307.19;5087976;28;20135;-58
2022/07/22 10:55:37;;;;;;;3.20;2.88;;;;;;;44.06;17.76;99307.59;5085998;28;20105;-61
2022/07/22 10:58:34;;;;;;;4.95;2.88;;;;;;;45.07;16.87;99318.00;5088156;28;20047;-60
2022/07/22 11:01:02;;;;;;;3.30;3.00;;;;;;;45.67;16.49;99294.66;5089292;28;20134;-59
2022/07/22 11:03:29;;;;;;;6.25;3.55;;;;;;;46.54;15.75;99299.91;5089453;28;20036;-59
2022/07/22 11:05:56;;;;;;;3.70;3.40;;;;;;;46.76;15.84;99311.97;5108349;28;20101;-59
2022/07/22 11:08:22;;;;;;;4.95;3.05;;;;;;;46.78;15.55;99312.50;5089792;28;20048;-59
2022/07/22 11:10:49;;;;;;;3.33;3.03;;;;;;;46.60;15.21;99284.97;5090512;28;20436;-59
2022/07/22 11:13:34;;;;;;;4.53;3.35;;;;;;;46.78;15.06;99308.91;5089476;28;20196;-59
2022/07/22 11:16:22;;;;;;;3.72;3.38;;;;;;;47.13;15.04;99304.78;5088056;28;20523;-59
2022/07/22 11:18:55;;;;;;;3.50;3.30;;;;;;;47.25;14.84;99298.78;5088917;28;20044;-59
2022/07/22 11:21:24;;;;;;;3.63;3.40;;;;;;;47.53;14.67;99301.31;5095047;28;20419;-59
2022/07/22 11:23:52;;;;;;;3.42;3.22;;;;;;;47.78;14.71;99299.22;5107948;28;20044;-60
2022/07/22 11:26:24;;;;;;;5.38;4.22;;;;;;;47.91;14.40;99306.66;5104875;28;20035;-59
2022/07/22 11:28:50;;;;;;;4.20;3.80;;;;;;;47.96;14.42;99301.84;5089078;28;20040;-59
2022/07/22 11:31:18;;;;;;;4.63;4.33;;;;;;;48.04;14.05;99308.63;5096084;28;20078;-59
2022/07/22 11:33:45;;;;;;;6.32;4.57;;;;;;;48.06;13.96;99303.59;5111630;28;20050;-59
2022/07/22 11:36:12;;;;;;;4.25;3.80;;;;;;;48.22;14.13;99298.56;5094746;28;20039;-59
2022/07/22 11:38:48;;;;;;;4.07;3.75;;;;;;;47.85;14.02;99283.06;5112827;28;20071;-60
2022/07/22 11:41:15;;;;;;;;;;;;;;;46.76;14.68;99287.19;5092867;28;20040;-59
2022/07/22 11:43:43;;;;;;;;;;;;;;;46.41;15.22;99292.38;5113449;28;19920;-60